sensor_id;sensor_type;location;lat;lon;timestamp;temperature;humidity
51867;DHT22;52862;52.504;13.480;2022-09-12T00:01:08;14.80;99.90
51867;DHT22;52862;52.504;13.480;2022-09-12T00:03:35;14.70;99.90
51867;DHT22;52862;52.504;13.480;2022-09-12T00:06:08;14.70;99.90
51867;DHT22;52862;52.504;13.480;2022-09-12T00:08:35;15.00;99.90
51867;DHT22;52862;52.504;13.480;2022-09-12T00:11:08;14.70;99.90
51867;DHT22;52862;52.504;13.480;2022-09-12T00:13:39;14.70;99.90
51867;DHT22;52862;52.504;13.480;2022-09-12T00:16:13;14.70;99.90
51867;DHT22;52862;52.504;13.480;2022-09-12T00:18:41;14.60;99.90
51867;DHT22;52862;52.504;13.480;2022-09-12T00:21:08;14.60;99.90
51867;DHT22;52862;52.504;13.480;2022-09-12T00:23:35;14.50;99.90
51867;DHT22;52862;52.504;13.480;2022-09-12T00:26:04;14.30;99.90
51867;DHT22;52862;52.504;13.480;2022-09-12T00:28:32;14.60;99.90
51867;DHT22;52862;52.504;13.480;2022-09-12T00:31:03;14.50;99.90
51867;DHT22;52862;52.504;13.480;2022-09-12T00:33:30;14.40;99.90
51867;DHT22;52862;52.504;13.480;2022-09-12T00:35:57;14.60;99.90
51867;DHT22;52862;52.504;13.480;2022-09-12T00:38:24;14.40;99.90
51867;DHT22;52862;52.504;13.480;2022-09-12T00:40:51;14.40;99.90
51867;DHT22;52862;52.504;13.480;2022-09-12T00:43:35;14.40;99.90
51867;DHT22;52862;52.504;13.480;2022-09-12T00:46:05;14.20;99.90
51867;DHT22;52862;52.504;13.480;2022-09-12T00:48:38;14.30;99.90
51867;DHT22;52862;52.504;13.480;2022-09-12T00:51:06;14.20;99.90
51867;DHT22;52862;52.504;13.480;2022-09-12T00:53:34;14.20;99.90
51867;DHT22;52862;52.504;13.480;2022-09-12T00:56:01;13.90;99.90
51867;DHT22;52862;52.504;13.480;2022-09-12T00:58:30;14.20;99.90
51867;DHT22;52862;52.504;13.480;2022-09-12T01:01:00;14.20;99.90
51867;DHT22;52862;52.504;13.480;2022-09-12T01:03:27;14.10;99.90
51867;DHT22;52862;52.504;13.480;2022-09-12T01:05:58;14.30;99.90
51867;DHT22;52862;52.504;13.480;2022-09-12T01:08:28;14.30;99.90
51867;DHT22;52862;52.504;13.480;2022-09-12T01:10:55;14.20;99.90
51867;DHT22;52862;52.504;13.480;2022-09-12T01:13:23;14.30;99.90
51867;DHT22;52862;52.504;13.480;2022-09-12T01:15:49;14.20;99.90
51867;DHT22;52862;52.504;13.480;2022-09-12T01:18:22;12.10;99.90
51867;DHT22;52862;52.504;13.480;2022-09-12T01:21:01;14.20;99.90
51867;DHT22;52862;52.504;13.480;2022-09-12T01:24:11;14.10;99.90
51867;DHT22;52862;52.504;13.480;2022-09-12T01:35:44;14.10;99.90
51867;DHT22;52862;52.504;13.480;2022-09-12T01:38:19;14.00;99.90
51867;DHT22;52862;52.504;13.480;2022-09-12T01:40:58;14.00;99.90
51867;DHT22;52862;52.504;13.480;2022-09-12T01:43:31;14.00;99.90
51867;DHT22;52862;52.504;13.480;2022-09-12T01:46:05;14.00;99.90
51867;DHT22;52862;52.504;13.480;2022-09-12T01:48:37;14.00;99.90
51867;DHT22;52862;52.504;13.480;2022-09-12T01:51:10;13.90;99.90
51867;DHT22;52862;52.504;13.480;2022-09-12T01:53:41;13.90;99.90
51867;DHT22;52862;52.504;13.480;2022-09-12T01:56:13;13.90;99.90
51867;DHT22;52862;52.504;13.480;2022-09-12T01:58:46;13.90;99.90
51867;DHT22;52862;52.504;13.480;2022-09-12T02:01:18;13.80;99.90
51867;DHT22;52862;52.504;13.480;2022-09-12T02:03:50;13.80;99.90
51867;DHT22;52862;52.504;13.480;2022-09-12T02:06:22;13.80;99.90
51867;DHT22;52862;52.504;13.480;2022-09-12T02:08:52;13.80;99.90
51867;DHT22;52862;52.504;13.480;2022-09-12T02:11:20;13.80;99.90
51867;DHT22;52862;52.504;13.480;2022-09-12T02:13:50;13.80;99.90
51867;DHT22;52862;52.504;13.480;2022-09-12T02:16:22;13.80;99.90
51867;DHT22;52862;52.504;13.480;2022-09-12T02:18:54;13.80;99.90
51867;DHT22;52862;52.504;13.480;2022-09-12T02:21:25;13.80;99.90
51867;DHT22;52862;52.504;13.480;2022-09-12T02:23:56;13.70;99.90
51867;DHT22;52862;52.504;13.480;2022-09-12T02:26:28;13.80;99.90
51867;DHT22;52862;52.504;13.480;2022-09-12T02:28:56;13.70;99.90
51867;DHT22;52862;52.504;13.480;2022-09-12T02:31:26;13.70;99.90
51867;DHT22;52862;52.504;13.480;2022-09-12T02:34:04;13.60;99.90
51867;DHT22;52862;52.504;13.480;2022-09-12T02:36:38;13.70;99.90
51867;DHT22;52862;52.504;13.480;2022-09-12T02:39:08;13.60;99.90
51867;DHT22;52862;52.504;13.480;2022-09-12T02:41:35;13.80;99.90
51867;DHT22;52862;52.504;13.480;2022-09-12T02:44:02;13.60;99.90
51867;DHT22;52862;52.504;13.480;2022-09-12T02:46:34;13.60;99.90
51867;DHT22;52862;52.504;13.480;2022-09-12T02:49:03;13.70;99.90
51867;DHT22;52862;52.504;13.480;2022-09-12T02:51:30;13.70;99.90
51867;DHT22;52862;52.504;13.480;2022-09-12T02:53:58;13.80;99.90
51867;DHT22;52862;52.504;13.480;2022-09-12T02:56:28;13.70;99.90
51867;DHT22;52862;52.504;13.480;2022-09-12T02:58:58;13.70;99.90
51867;DHT22;52862;52.504;13.480;2022-09-12T03:01:52;13.70;99.90
51867;DHT22;52862;52.504;13.480;2022-09-12T03:04:39;13.70;99.90
51867;DHT22;52862;52.504;13.480;2022-09-12T03:07:15;13.70;99.90
51867;DHT22;52862;52.504;13.480;2022-09-12T03:09:46;13.70;99.90
51867;DHT22;52862;52.504;13.480;2022-09-12T03:12:25;13.70;99.90
51867;DHT22;52862;52.504;13.480;2022-09-12T03:15:09;13.60;99.90
51867;DHT22;52862;52.504;13.480;2022-09-12T03:17:46;13.60;99.90
51867;DHT22;52862;52.504;13.480;2022-09-12T03:20:21;13.60;99.90
51867;DHT22;52862;52.504;13.480;2022-09-12T03:22:52;13.60;99.90
51867;DHT22;52862;52.504;13.480;2022-09-12T03:25:22;13.60;99.90
51867;DHT22;52862;52.504;13.480;2022-09-12T03:27:55;13.60;99.90
51867;DHT22;52862;52.504;13.480;2022-09-12T03:30:24;13.50;99.90
51867;DHT22;52862;52.504;13.480;2022-09-12T03:32:52;13.50;99.90
51867;DHT22;52862;52.504;13.480;2022-09-12T03:35:21;13.50;99.90
51867;DHT22;52862;52.504;13.480;2022-09-12T03:37:50;13.50;99.90
51867;DHT22;52862;52.504;13.480;2022-09-12T03:40:17;13.50;99.90
51867;DHT22;52862;52.504;13.480;2022-09-12T03:42:44;13.50;99.90
51867;DHT22;52862;52.504;13.480;2022-09-12T03:45:10;13.50;99.90
51867;DHT22;52862;52.504;13.480;2022-09-12T03:47:37;13.50;99.90
51867;DHT22;52862;52.504;13.480;2022-09-12T03:50:06;13.40;99.90
51867;DHT22;52862;52.504;13.480;2022-09-12T03:52:34;13.40;99.90
51867;DHT22;52862;52.504;13.480;2022-09-12T03:55:00;13.40;99.90
51867;DHT22;52862;52.504;13.480;2022-09-12T03:57:27;13.40;99.90
51867;DHT22;52862;52.504;13.480;2022-09-12T03:59:54;13.50;99.90
51867;DHT22;52862;52.504;13.480;2022-09-12T04:02:20;13.40;99.90
51867;DHT22;52862;52.504;13.480;2022-09-12T04:04:47;13.40;99.90
51867;DHT22;52862;52.504;13.480;2022-09-12T04:07:14;13.40;99.90
51867;DHT22;52862;52.504;13.480;2022-09-12T04:09:42;13.40;99.90
51867;DHT22;52862;52.504;13.480;2022-09-12T04:12:08;13.20;99.90
51867;DHT22;52862;52.504;13.480;2022-09-12T04:14:35;13.30;99.90
51867;DHT22;52862;52.504;13.480;2022-09-12T04:17:02;13.30;99.90
51867;DHT22;52862;52.504;13.480;2022-09-12T04:19:29;13.40;99.90
51867;DHT22;52862;52.504;13.480;2022-09-12T04:21:55;13.30;99.90
51867;DHT22;52862;52.504;13.480;2022-09-12T04:24:22;13.40;99.90
51867;DHT22;52862;52.504;13.480;2022-09-12T04:26:49;13.40;99.90
51867;DHT22;52862;52.504;13.480;2022-09-12T04:29:16;13.40;99.90
51867;DHT22;52862;52.504;13.480;2022-09-12T04:31:42;13.50;99.90
51867;DHT22;52862;52.504;13.480;2022-09-12T04:34:09;13.50;99.90
51867;DHT22;52862;52.504;13.480;2022-09-12T04:36:36;13.40;99.90
51867;DHT22;52862;52.504;13.480;2022-09-12T04:39:05;13.40;99.90
51867;DHT22;52862;52.504;13.480;2022-09-12T04:41:34;13.40;99.90
51867;DHT22;52862;52.504;13.480;2022-09-12T04:44:04;13.40;99.90
51867;DHT22;52862;52.504;13.480;2022-09-12T04:46:34;13.30;99.90
51867;DHT22;52862;52.504;13.480;2022-09-12T04:49:01;13.30;99.90
51867;DHT22;52862;52.504;13.480;2022-09-12T04:51:30;13.30;99.90
51867;DHT22;52862;52.504;13.480;2022-09-12T04:54:00;13.40;99.90
51867;DHT22;52862;52.504;13.480;2022-09-12T04:56:29;13.40;99.90
51867;DHT22;52862;52.504;13.480;2022-09-12T04:58:56;13.50;99.90
51867;DHT22;52862;52.504;13.480;2022-09-12T05:01:24;13.50;99.90
51867;DHT22;52862;52.504;13.480;2022-09-12T05:03:52;13.50;99.90
51867;DHT22;52862;52.504;13.480;2022-09-12T05:06:20;13.50;99.90
51867;DHT22;52862;52.504;13.480;2022-09-12T05:08:48;13.70;99.90
51867;DHT22;52862;52.504;13.480;2022-09-12T05:11:16;13.50;99.90
51867;DHT22;52862;52.504;13.480;2022-09-12T05:13:49;13.60;99.90
51867;DHT22;52862;52.504;13.480;2022-09-12T05:16:17;13.60;99.90
51867;DHT22;52862;52.504;13.480;2022-09-12T05:18:45;13.60;99.90
51867;DHT22;52862;52.504;13.480;2022-09-12T05:21:14;13.70;99.90
51867;DHT22;52862;52.504;13.480;2022-09-12T05:23:40;13.70;99.90
51867;DHT22;52862;52.504;13.480;2022-09-12T05:26:11;13.80;99.90
51867;DHT22;52862;52.504;13.480;2022-09-12T05:28:38;13.70;99.90
51867;DHT22;52862;52.504;13.480;2022-09-12T05:31:06;13.90;99.90
51867;DHT22;52862;52.504;13.480;2022-09-12T05:33:34;13.80;99.90
51867;DHT22;52862;52.504;13.480;2022-09-12T05:36:04;13.90;99.90
51867;DHT22;52862;52.504;13.480;2022-09-12T05:38:32;13.80;99.90
51867;DHT22;52862;52.504;13.480;2022-09-12T05:41:03;14.00;99.90
51867;DHT22;52862;52.504;13.480;2022-09-12T05:43:31;14.10;99.90
51867;DHT22;52862;52.504;13.480;2022-09-12T05:46:00;14.10;99.90
51867;DHT22;52862;52.504;13.480;2022-09-12T05:48:27;14.20;99.90
51867;DHT22;52862;52.504;13.480;2022-09-12T05:50:58;14.20;99.90
51867;DHT22;52862;52.504;13.480;2022-09-12T05:53:27;14.20;99.90
51867;DHT22;52862;52.504;13.480;2022-09-12T05:56:06;14.30;99.90
51867;DHT22;52862;52.504;13.480;2022-09-12T05:58:33;14.30;99.90
51867;DHT22;52862;52.504;13.480;2022-09-12T06:01:05;14.50;99.90
51867;DHT22;52862;52.504;13.480;2022-09-12T06:03:33;14.60;99.90
51867;DHT22;52862;52.504;13.480;2022-09-12T06:06:02;14.80;99.90
51867;DHT22;52862;52.504;13.480;2022-09-12T06:08:30;14.70;99.90
51867;DHT22;52862;52.504;13.480;2022-09-12T06:10:58;14.80;99.90
51867;DHT22;52862;52.504;13.480;2022-09-12T06:13:30;14.90;99.90
51867;DHT22;52862;52.504;13.480;2022-09-12T06:16:02;15.20;99.90
51867;DHT22;52862;52.504;13.480;2022-09-12T06:18:29;15.00;99.90
51867;DHT22;52862;52.504;13.480;2022-09-12T06:20:55;15.20;99.90
51867;DHT22;52862;52.504;13.480;2022-09-12T06:23:23;15.50;99.90
51867;DHT22;52862;52.504;13.480;2022-09-12T06:25:51;15.70;99.90
51867;DHT22;52862;52.504;13.480;2022-09-12T06:28:17;15.90;99.90
51867;DHT22;52862;52.504;13.480;2022-09-12T06:30:44;16.00;99.90
51867;DHT22;52862;52.504;13.480;2022-09-12T06:33:11;16.00;99.90
51867;DHT22;52862;52.504;13.480;2022-09-12T06:35:38;16.10;99.90
51867;DHT22;52862;52.504;13.480;2022-09-12T06:38:05;16.10;99.90
51867;DHT22;52862;52.504;13.480;2022-09-12T06:40:32;16.20;99.90
51867;DHT22;52862;52.504;13.480;2022-09-12T06:43:00;16.30;99.90
51867;DHT22;52862;52.504;13.480;2022-09-12T06:45:26;16.30;99.90
51867;DHT22;52862;52.504;13.480;2022-09-12T06:47:54;16.50;99.90
51867;DHT22;52862;52.504;13.480;2022-09-12T06:50:20;16.50;99.90
51867;DHT22;52862;52.504;13.480;2022-09-12T06:52:48;16.50;99.90
51867;DHT22;52862;52.504;13.480;2022-09-12T06:55:15;16.30;99.90
51867;DHT22;52862;52.504;13.480;2022-09-12T06:57:47;16.20;99.90
51867;DHT22;52862;52.504;13.480;2022-09-12T07:00:15;16.40;99.90
51867;DHT22;52862;52.504;13.480;2022-09-12T07:02:41;16.50;99.90
51867;DHT22;52862;52.504;13.480;2022-09-12T07:05:08;16.50;99.90
51867;DHT22;52862;52.504;13.480;2022-09-12T07:07:36;16.60;99.90
51867;DHT22;52862;52.504;13.480;2022-09-12T07:10:03;16.70;99.90
51867;DHT22;52862;52.504;13.480;2022-09-12T07:12:31;16.80;99.90
51867;DHT22;52862;52.504;13.480;2022-09-12T07:14:58;17.00;99.90
51867;DHT22;52862;52.504;13.480;2022-09-12T07:17:25;17.10;99.90
51867;DHT22;52862;52.504;13.480;2022-09-12T07:19:52;17.30;99.90
51867;DHT22;52862;52.504;13.480;2022-09-12T07:22:20;17.30;99.90
51867;DHT22;52862;52.504;13.480;2022-09-12T07:24:47;17.40;99.90
51867;DHT22;52862;52.504;13.480;2022-09-12T07:27:13;17.50;99.90
51867;DHT22;52862;52.504;13.480;2022-09-12T07:29:40;17.50;99.90
51867;DHT22;52862;52.504;13.480;2022-09-12T07:32:07;17.60;99.90
51867;DHT22;52862;52.504;13.480;2022-09-12T07:34:35;17.60;99.90
51867;DHT22;52862;52.504;13.480;2022-09-12T07:37:02;17.60;99.90
51867;DHT22;52862;52.504;13.480;2022-09-12T07:39:28;17.60;99.90
51867;DHT22;52862;52.504;13.480;2022-09-12T07:41:55;17.70;99.90
51867;DHT22;52862;52.504;13.480;2022-09-12T07:44:22;17.70;99.90
51867;DHT22;52862;52.504;13.480;2022-09-12T07:46:50;17.60;99.90
51867;DHT22;52862;52.504;13.480;2022-09-12T07:49:17;17.80;99.90
51867;DHT22;52862;52.504;13.480;2022-09-12T07:51:46;17.90;99.90
51867;DHT22;52862;52.504;13.480;2022-09-12T07:54:12;18.00;99.90
51867;DHT22;52862;52.504;13.480;2022-09-12T07:56:40;18.00;99.90
51867;DHT22;52862;52.504;13.480;2022-09-12T07:59:12;18.20;99.90
51867;DHT22;52862;52.504;13.480;2022-09-12T08:02:01;18.20;99.90
51867;DHT22;52862;52.504;13.480;2022-09-12T08:04:28;18.40;99.90
51867;DHT22;52862;52.504;13.480;2022-09-12T08:06:56;18.40;99.90
51867;DHT22;52862;52.504;13.480;2022-09-12T08:09:23;18.50;99.90
51867;DHT22;52862;52.504;13.480;2022-09-12T08:11:50;18.50;99.90
51867;DHT22;52862;52.504;13.480;2022-09-12T08:14:17;18.70;99.90
51867;DHT22;52862;52.504;13.480;2022-09-12T08:16:43;18.90;99.90
51867;DHT22;52862;52.504;13.480;2022-09-12T08:19:10;19.30;99.90
51867;DHT22;52862;52.504;13.480;2022-09-12T08:21:37;19.20;99.90
51867;DHT22;52862;52.504;13.480;2022-09-12T08:24:05;19.30;99.90
51867;DHT22;52862;52.504;13.480;2022-09-12T08:26:33;18.80;99.90
51867;DHT22;52862;52.504;13.480;2022-09-12T08:29:00;18.80;99.90
51867;DHT22;52862;52.504;13.480;2022-09-12T08:31:27;18.70;99.90
51867;DHT22;52862;52.504;13.480;2022-09-12T08:33:55;18.40;99.90
51867;DHT22;52862;52.504;13.480;2022-09-12T08:36:23;18.20;99.90
51867;DHT22;52862;52.504;13.480;2022-09-12T08:38:53;18.00;99.90
51867;DHT22;52862;52.504;13.480;2022-09-12T08:41:29;18.20;99.90
51867;DHT22;52862;52.504;13.480;2022-09-12T08:46:49;18.00;99.90
51867;DHT22;52862;52.504;13.480;2022-09-12T08:49:28;18.40;99.90
51867;DHT22;52862;52.504;13.480;2022-09-12T08:51:57;18.90;99.90
51867;DHT22;52862;52.504;13.480;2022-09-12T08:54:27;19.30;99.90
51867;DHT22;52862;52.504;13.480;2022-09-12T08:57:01;19.50;99.90
51867;DHT22;52862;52.504;13.480;2022-09-12T08:59:32;19.70;99.90
51867;DHT22;52862;52.504;13.480;2022-09-12T09:02:01;19.60;99.90
51867;DHT22;52862;52.504;13.480;2022-09-12T09:04:36;19.50;99.90
51867;DHT22;52862;52.504;13.480;2022-09-12T09:07:32;19.30;99.90
51867;DHT22;52862;52.504;13.480;2022-09-12T09:10:11;19.20;99.90
51867;DHT22;52862;52.504;13.480;2022-09-12T09:12:48;19.20;99.90
51867;DHT22;52862;52.504;13.480;2022-09-12T09:15:26;19.30;99.90
51867;DHT22;52862;52.504;13.480;2022-09-12T09:17:59;19.50;99.90
51867;DHT22;52862;52.504;13.480;2022-09-12T09:20:31;19.40;99.90
51867;DHT22;52862;52.504;13.480;2022-09-12T09:23:04;19.50;99.90
51867;DHT22;52862;52.504;13.480;2022-09-12T09:25:41;19.60;99.90
51867;DHT22;52862;52.504;13.480;2022-09-12T09:28:13;19.40;99.90
51867;DHT22;52862;52.504;13.480;2022-09-12T09:30:42;19.20;99.90
51867;DHT22;52862;52.504;13.480;2022-09-12T09:33:17;19.00;99.90
51867;DHT22;52862;52.504;13.480;2022-09-12T09:35:46;18.80;99.90
51867;DHT22;52862;52.504;13.480;2022-09-12T09:38:22;18.80;99.90
51867;DHT22;52862;52.504;13.480;2022-09-12T09:41:00;19.00;99.90
51867;DHT22;52862;52.504;13.480;2022-09-12T09:43:29;19.40;99.90
51867;DHT22;52862;52.504;13.480;2022-09-12T09:45:57;19.80;99.90
51867;DHT22;52862;52.504;13.480;2022-09-12T09:48:27;20.20;99.90
51867;DHT22;52862;52.504;13.480;2022-09-12T09:50:57;20.40;99.90
51867;DHT22;52862;52.504;13.480;2022-09-12T09:53:32;20.30;99.90
51867;DHT22;52862;52.504;13.480;2022-09-12T09:56:04;20.30;99.90
51867;DHT22;52862;52.504;13.480;2022-09-12T09:58:34;20.20;99.90
51867;DHT22;52862;52.504;13.480;2022-09-12T10:01:03;19.90;99.90
51867;DHT22;52862;52.504;13.480;2022-09-12T10:03:32;19.60;99.90
51867;DHT22;52862;52.504;13.480;2022-09-12T10:06:05;19.50;99.90
51867;DHT22;52862;52.504;13.480;2022-09-12T10:08:33;19.40;99.90
51867;DHT22;52862;52.504;13.480;2022-09-12T10:11:04;19.40;99.90
51867;DHT22;52862;52.504;13.480;2022-09-12T10:13:37;19.40;99.90
51867;DHT22;52862;52.504;13.480;2022-09-12T10:16:06;19.60;99.90
51867;DHT22;52862;52.504;13.480;2022-09-12T10:18:42;20.10;99.90
51867;DHT22;52862;52.504;13.480;2022-09-12T10:21:21;20.50;99.90
51867;DHT22;52862;52.504;13.480;2022-09-12T10:23:56;20.50;99.90
51867;DHT22;52862;52.504;13.480;2022-09-12T10:26:25;20.50;99.90
51867;DHT22;52862;52.504;13.480;2022-09-12T10:28:55;20.90;99.90
51867;DHT22;52862;52.504;13.480;2022-09-12T10:31:26;21.20;99.90
51867;DHT22;52862;52.504;13.480;2022-09-12T10:33:56;21.00;99.90
51867;DHT22;52862;52.504;13.480;2022-09-12T10:36:25;20.90;99.90
51867;DHT22;52862;52.504;13.480;2022-09-12T10:39:01;20.90;99.90
51867;DHT22;52862;52.504;13.480;2022-09-12T10:41:34;21.00;99.90
51867;DHT22;52862;52.504;13.480;2022-09-12T10:44:07;21.20;99.90
51867;DHT22;52862;52.504;13.480;2022-09-12T10:46:35;20.90;99.90
51867;DHT22;52862;52.504;13.480;2022-09-12T10:49:20;20.70;99.90
51867;DHT22;52862;52.504;13.480;2022-09-12T10:51:50;20.90;99.90
51867;DHT22;52862;52.504;13.480;2022-09-12T10:54:21;21.10;99.90
51867;DHT22;52862;52.504;13.480;2022-09-12T10:57:02;21.00;99.90
51867;DHT22;52862;52.504;13.480;2022-09-12T10:59:39;21.10;99.90
51867;DHT22;52862;52.504;13.480;2022-09-12T11:02:14;21.20;99.90
51867;DHT22;52862;52.504;13.480;2022-09-12T11:04:59;21.40;99.90
51867;DHT22;52862;52.504;13.480;2022-09-12T11:07:41;21.30;99.90
51867;DHT22;52862;52.504;13.480;2022-09-12T11:10:21;21.00;99.90
51867;DHT22;52862;52.504;13.480;2022-09-12T11:12:59;21.20;99.90
51867;DHT22;52862;52.504;13.480;2022-09-12T11:15:42;21.50;99.90
51867;DHT22;52862;52.504;13.480;2022-09-12T11:18:24;21.90;99.90
51867;DHT22;52862;52.504;13.480;2022-09-12T11:21:12;21.80;99.90
51867;DHT22;52862;52.504;13.480;2022-09-12T11:24:18;22.00;99.90
51867;DHT22;52862;52.504;13.480;2022-09-12T11:27:11;21.70;99.90
51867;DHT22;52862;52.504;13.480;2022-09-12T11:29:47;21.30;99.90
51867;DHT22;52862;52.504;13.480;2022-09-12T11:32:54;21.30;99.90
51867;DHT22;52862;52.504;13.480;2022-09-12T11:35:27;21.10;99.90
51867;DHT22;52862;52.504;13.480;2022-09-12T11:38:09;21.10;99.90
51867;DHT22;52862;52.504;13.480;2022-09-12T11:40:43;21.10;99.90
51867;DHT22;52862;52.504;13.480;2022-09-12T11:43:22;21.30;99.90
51867;DHT22;52862;52.504;13.480;2022-09-12T11:45:51;21.50;99.90
51867;DHT22;52862;52.504;13.480;2022-09-12T11:48:31;21.50;99.90
51867;DHT22;52862;52.504;13.480;2022-09-12T11:51:02;21.60;99.90
51867;DHT22;52862;52.504;13.480;2022-09-12T11:53:35;21.50;99.90
51867;DHT22;52862;52.504;13.480;2022-09-12T11:56:07;21.80;99.90
51867;DHT22;52862;52.504;13.480;2022-09-12T11:58:36;22.30;99.90
51867;DHT22;52862;52.504;13.480;2022-09-12T12:01:11;22.40;99.90
51867;DHT22;52862;52.504;13.480;2022-09-12T12:03:44;22.20;99.90
51867;DHT22;52862;52.504;13.480;2022-09-12T12:06:14;22.20;99.90
51867;DHT22;52862;52.504;13.480;2022-09-12T12:08:45;22.10;99.90
51867;DHT22;52862;52.504;13.480;2022-09-12T12:11:26;22.00;99.90
51867;DHT22;52862;52.504;13.480;2022-09-12T12:13:57;22.30;99.90
51867;DHT22;52862;52.504;13.480;2022-09-12T12:16:26;22.40;99.90
51867;DHT22;52862;52.504;13.480;2022-09-12T12:18:56;22.60;99.90
51867;DHT22;52862;52.504;13.480;2022-09-12T12:21:36;22.80;99.90
51867;DHT22;52862;52.504;13.480;2022-09-12T12:24:13;22.30;99.90
51867;DHT22;52862;52.504;13.480;2022-09-12T12:26:58;22.50;99.90
51867;DHT22;52862;52.504;13.480;2022-09-12T12:29:42;22.80;99.90
51867;DHT22;52862;52.504;13.480;2022-09-12T12:32:21;23.10;99.90
51867;DHT22;52862;52.504;13.480;2022-09-12T12:37:54;22.80;99.90
51867;DHT22;52862;52.504;13.480;2022-09-12T12:40:26;23.20;99.90
51867;DHT22;52862;52.504;13.480;2022-09-12T12:42:59;23.60;99.90
51867;DHT22;52862;52.504;13.480;2022-09-12T12:49:00;24.20;99.90
51867;DHT22;52862;52.504;13.480;2022-09-12T12:51:48;24.40;99.90
51867;DHT22;52862;52.504;13.480;2022-09-12T12:54:32;24.00;99.90
51867;DHT22;52862;52.504;13.480;2022-09-12T12:57:05;23.70;99.90
51867;DHT22;52862;52.504;13.480;2022-09-12T12:59:45;23.50;99.90
51867;DHT22;52862;52.504;13.480;2022-09-12T13:02:20;23.20;99.90
51867;DHT22;52862;52.504;13.480;2022-09-12T13:04:48;22.90;99.90
51867;DHT22;52862;52.504;13.480;2022-09-12T13:07:29;22.60;99.90
51867;DHT22;52862;52.504;13.480;2022-09-12T13:09:57;22.90;99.90
51867;DHT22;52862;52.504;13.480;2022-09-12T13:12:26;23.20;99.90
51867;DHT22;52862;52.504;13.480;2022-09-12T13:14:55;23.50;99.90
51867;DHT22;52862;52.504;13.480;2022-09-12T13:17:34;23.30;99.90
51867;DHT22;52862;52.504;13.480;2022-09-12T13:20:16;23.20;99.90
51867;DHT22;52862;52.504;13.480;2022-09-12T13:22:59;23.00;99.90
51867;DHT22;52862;52.504;13.480;2022-09-12T13:25:28;23.40;99.90
51867;DHT22;52862;52.504;13.480;2022-09-12T13:28:03;23.70;99.90
51867;DHT22;52862;52.504;13.480;2022-09-12T13:30:31;24.00;99.90
51867;DHT22;52862;52.504;13.480;2022-09-12T13:33:11;24.00;99.90
51867;DHT22;52862;52.504;13.480;2022-09-12T13:39:06;23.10;99.90
51867;DHT22;52862;52.504;13.480;2022-09-12T13:42:05;22.80;99.90
51867;DHT22;52862;52.504;13.480;2022-09-12T13:44:42;23.00;99.90
51867;DHT22;52862;52.504;13.480;2022-09-12T13:47:15;23.20;99.90
51867;DHT22;52862;52.504;13.480;2022-09-12T13:49:45;23.80;99.90
51867;DHT22;52862;52.504;13.480;2022-09-12T13:52:16;23.70;99.90
51867;DHT22;52862;52.504;13.480;2022-09-12T13:54:47;23.30;99.90
51867;DHT22;52862;52.504;13.480;2022-09-12T13:57:32;23.50;99.90
51867;DHT22;52862;52.504;13.480;2022-09-12T14:00:01;23.30;99.90
51867;DHT22;52862;52.504;13.480;2022-09-12T14:02:29;22.90;99.90
51867;DHT22;52862;52.504;13.480;2022-09-12T14:04:58;22.90;99.90
51867;DHT22;52862;52.504;13.480;2022-09-12T14:07:52;23.30;99.90
51867;DHT22;52862;52.504;13.480;2022-09-12T14:10:25;23.50;99.90
51867;DHT22;52862;52.504;13.480;2022-09-12T14:12:53;23.70;99.90
51867;DHT22;52862;52.504;13.480;2022-09-12T14:15:24;24.10;99.90
51867;DHT22;52862;52.504;13.480;2022-09-12T14:17:53;23.70;99.90
51867;DHT22;52862;52.504;13.480;2022-09-12T14:20:21;23.60;99.90
51867;DHT22;52862;52.504;13.480;2022-09-12T14:22:50;23.70;99.90
51867;DHT22;52862;52.504;13.480;2022-09-12T14:25:19;23.60;99.90
51867;DHT22;52862;52.504;13.480;2022-09-12T14:27:49;23.00;99.90
51867;DHT22;52862;52.504;13.480;2022-09-12T14:30:22;22.80;99.90
51867;DHT22;52862;52.504;13.480;2022-09-12T14:33:17;22.60;99.90
51867;DHT22;52862;52.504;13.480;2022-09-12T14:35:48;22.30;99.90
51867;DHT22;52862;52.504;13.480;2022-09-12T14:38:23;22.20;99.90
51867;DHT22;52862;52.504;13.480;2022-09-12T14:40:58;22.30;99.90
51867;DHT22;52862;52.504;13.480;2022-09-12T14:43:28;22.20;99.90
51867;DHT22;52862;52.504;13.480;2022-09-12T14:45:57;22.10;99.90
51867;DHT22;52862;52.504;13.480;2022-09-12T14:48:25;22.00;99.90
51867;DHT22;52862;52.504;13.480;2022-09-12T14:50:53;22.40;99.90
51867;DHT22;52862;52.504;13.480;2022-09-12T14:53:24;22.40;99.90
51867;DHT22;52862;52.504;13.480;2022-09-12T14:55:52;22.20;99.90
51867;DHT22;52862;52.504;13.480;2022-09-12T14:58:24;22.10;99.90
51867;DHT22;52862;52.504;13.480;2022-09-12T15:00:54;22.10;99.90
51867;DHT22;52862;52.504;13.480;2022-09-12T15:03:26;22.20;99.90
51867;DHT22;52862;52.504;13.480;2022-09-12T15:05:54;22.00;99.90
51867;DHT22;52862;52.504;13.480;2022-09-12T15:08:21;21.80;99.90
51867;DHT22;52862;52.504;13.480;2022-09-12T15:10:48;21.90;99.90
51867;DHT22;52862;52.504;13.480;2022-09-12T15:13:20;21.80;99.90
51867;DHT22;52862;52.504;13.480;2022-09-12T15:15:49;21.80;99.90
51867;DHT22;52862;52.504;13.480;2022-09-12T15:18:17;21.60;99.90
51867;DHT22;52862;52.504;13.480;2022-09-12T15:20:47;21.50;99.90
51867;DHT22;52862;52.504;13.480;2022-09-12T15:23:18;21.50;99.90
51867;DHT22;52862;52.504;13.480;2022-09-12T15:25:45;21.40;99.90
51867;DHT22;52862;52.504;13.480;2022-09-12T15:28:17;21.40;99.90
51867;DHT22;52862;52.504;13.480;2022-09-12T15:30:47;21.40;99.90
51867;DHT22;52862;52.504;13.480;2022-09-12T15:33:16;21.40;99.90
51867;DHT22;52862;52.504;13.480;2022-09-12T15:35:43;21.40;99.90
51867;DHT22;52862;52.504;13.480;2022-09-12T15:38:10;21.30;99.90
51867;DHT22;52862;52.504;13.480;2022-09-12T15:40:36;21.30;99.90
51867;DHT22;52862;52.504;13.480;2022-09-12T15:43:06;21.10;99.90
51867;DHT22;52862;52.504;13.480;2022-09-12T15:45:34;21.20;99.90
51867;DHT22;52862;52.504;13.480;2022-09-12T15:48:01;21.20;99.90
51867;DHT22;52862;52.504;13.480;2022-09-12T15:50:30;21.10;99.90
51867;DHT22;52862;52.504;13.480;2022-09-12T15:52:57;21.00;99.90
51867;DHT22;52862;52.504;13.480;2022-09-12T15:55:29;21.30;99.90
51867;DHT22;52862;52.504;13.480;2022-09-12T15:57:58;21.20;99.90
51867;DHT22;52862;52.504;13.480;2022-09-12T16:00:30;21.10;99.90
51867;DHT22;52862;52.504;13.480;2022-09-12T16:02:57;21.10;99.90